DEELH EDLI-EDLP
Flight info
| Callsign | DEELH |
|---|---|
| Flight time | N/A |
| Altitude | 4000 |
| Route | PAD/N0171A040 IFR |
| Aircraft | BT36/L-BDFGLORY/S |
Departure
| Time | 2026-05-04 18:45 |
|---|---|
| Airport | Bielefeld Airport (EDLI) |
Arrival
| Time | N/A |
|---|---|
| Airport | Paderborn Lippstadt Airport (EDLP) |
| Time | Latitude | Longitude | Altitude | Speed | Heading |
|---|---|---|---|---|---|
| 2026-05-04 18:37 | 51.96538 | 8.54964 | 456 ft | 0 kts | 252° |
| 2026-05-04 18:40 | 51.96538 | 8.54958 | 456 ft | 4 kts | 277° |
| 2026-05-04 18:40 | 51.96531 | 8.54880 | 456 ft | 12 kts | 250° |
| 2026-05-04 18:40 | 51.96499 | 8.54729 | 456 ft | 14 kts | 255° |
| 2026-05-04 18:40 | 51.96510 | 8.54687 | 456 ft | 0 kts | 295° |
| 2026-05-04 18:42 | 51.96512 | 8.54683 | 456 ft | 3 kts | 294° |
| 2026-05-04 18:42 | 51.96497 | 8.54565 | 456 ft | 14 kts | 162° |
| 2026-05-04 18:43 | 51.96488 | 8.54668 | 456 ft | 9 kts | 75° |
| 2026-05-04 18:43 | 51.96513 | 8.54674 | 456 ft | 1 kts | 292° |
| 2026-05-04 18:43 | 51.96488 | 8.54689 | 456 ft | 15 kts | 130° |
| 2026-05-04 18:43 | 51.96430 | 8.54923 | 457 ft | 24 kts | 109° |
| 2026-05-04 18:44 | 51.96384 | 8.55032 | 458 ft | 3 kts | 171° |
| 2026-05-04 18:44 | 51.96374 | 8.55030 | 458 ft | 1 kts | 195° |
| 2026-05-04 18:44 | 51.96367 | 8.54967 | 458 ft | 27 kts | 291° |
| 2026-05-04 18:44 | 51.96530 | 8.54241 | 520 ft | 100 kts | 290° |
| 2026-05-04 18:45 | 51.96808 | 8.53048 | 884 ft | 120 kts | 291° |
| 2026-05-04 18:45 | 51.96714 | 8.51758 | 1366 ft | 128 kts | 236° |
| 2026-05-04 18:45 | 51.96011 | 8.50826 | 1670 ft | 136 kts | 196° |
| 2026-05-04 18:45 | 51.95119 | 8.50970 | 1955 ft | 136 kts | 165° |
| 2026-05-04 18:46 | 51.94190 | 8.51362 | 2255 ft | 139 kts | 167° |
| 2026-05-04 18:46 | 51.93285 | 8.51773 | 2606 ft | 139 kts | 165° |
| 2026-05-04 18:46 | 51.92414 | 8.52122 | 2813 ft | 144 kts | 168° |
| 2026-05-04 18:46 | 51.91426 | 8.52498 | 3073 ft | 147 kts | 168° |
| 2026-05-04 18:47 | 51.90432 | 8.52888 | 3330 ft | 148 kts | 169° |
| 2026-05-04 18:47 | 51.89433 | 8.53279 | 3585 ft | 148 kts | 169° |
| 2026-05-04 18:47 | 51.88427 | 8.53678 | 3837 ft | 150 kts | 169° |
| 2026-05-04 18:47 | 51.87403 | 8.54082 | 3984 ft | 157 kts | 169° |
| 2026-05-04 18:48 | 51.86303 | 8.54513 | 3995 ft | 168 kts | 169° |
| 2026-05-04 18:48 | 51.85169 | 8.54963 | 3996 ft | 171 kts | 169° |
| 2026-05-04 18:48 | 51.83982 | 8.55432 | 3997 ft | 175 kts | 168° |
| 2026-05-04 18:48 | 51.82810 | 8.55893 | 3997 ft | 176 kts | 169° |
| 2026-05-04 18:49 | 51.81653 | 8.56521 | 3996 ft | 179 kts | 149° |
| 2026-05-04 18:49 | 51.80913 | 8.58142 | 3994 ft | 185 kts | 111° |
| 2026-05-04 18:49 | 51.80521 | 8.60111 | 3996 ft | 183 kts | 114° |
| 2026-05-04 18:49 | 51.80003 | 8.61993 | 4000 ft | 183 kts | 118° |
| 2026-05-04 18:50 | 51.79434 | 8.63862 | 4002 ft | 183 kts | 118° |
| 2026-05-04 18:50 | 51.78875 | 8.65692 | 4004 ft | 184 kts | 118° |
| 2026-05-04 18:50 | 51.78310 | 8.67544 | 4003 ft | 184 kts | 118° |
| 2026-05-04 18:50 | 51.77745 | 8.69400 | 4005 ft | 184 kts | 118° |
| 2026-05-04 18:51 | 51.77179 | 8.71252 | 4003 ft | 183 kts | 118° |
| 2026-05-04 18:51 | 51.76631 | 8.73056 | 4002 ft | 184 kts | 118° |
| 2026-05-04 18:51 | 51.76067 | 8.74909 | 3992 ft | 184 kts | 118° |
| 2026-05-04 18:51 | 51.75505 | 8.76755 | 3990 ft | 183 kts | 118° |
| 2026-05-04 18:52 | 51.74942 | 8.78598 | 3990 ft | 183 kts | 118° |
| 2026-05-04 18:52 | 51.74381 | 8.80428 | 3990 ft | 181 kts | 119° |
| 2026-05-04 18:52 | 51.73627 | 8.82001 | 3979 ft | 171 kts | 135° |
| 2026-05-04 18:52 | 51.73132 | 8.83658 | 3772 ft | 163 kts | 110° |
| 2026-05-04 18:53 | 51.72728 | 8.85416 | 3327 ft | 179 kts | 115° |
| 2026-05-04 18:53 | 51.72320 | 8.87182 | 3433 ft | 160 kts | 108° |
| 2026-05-04 18:53 | 51.71975 | 8.88705 | 3791 ft | 133 kts | 114° |
| 2026-05-04 18:53 | 51.71657 | 8.90068 | 3978 ft | 135 kts | 113° |
| 2026-05-04 18:54 | 51.71297 | 8.91583 | 3981 ft | 153 kts | 113° |
| 2026-05-04 18:54 | 51.70902 | 8.93215 | 3995 ft | 158 kts | 114° |
| 2026-05-04 18:54 | 51.70490 | 8.94899 | 3989 ft | 165 kts | 113° |
| 2026-05-04 18:54 | 51.70060 | 8.96630 | 3992 ft | 168 kts | 114° |
| 2026-05-04 18:55 | 51.69622 | 8.98381 | 3989 ft | 168 kts | 114° |
| 2026-05-04 18:55 | 51.68737 | 9.01900 | 3988 ft | 169 kts | 113° |
| 2026-05-04 18:55 | 51.68287 | 9.03660 | 3988 ft | 170 kts | 114° |
| 2026-05-04 18:56 | 51.67836 | 9.05444 | 3985 ft | 174 kts | 114° |
| 2026-05-04 18:56 | 51.67392 | 9.07267 | 3983 ft | 175 kts | 107° |
| 2026-05-04 18:56 | 51.67484 | 9.09200 | 3975 ft | 178 kts | 64° |
| 2026-05-04 18:56 | 51.68362 | 9.10509 | 3967 ft | 174 kts | 19° |
| 2026-05-04 18:57 | 51.69527 | 9.10488 | 3968 ft | 169 kts | 334° |
| 2026-05-04 18:57 | 51.70328 | 9.09196 | 3967 ft | 166 kts | 291° |
| 2026-05-04 18:57 | 51.70669 | 9.07436 | 3974 ft | 164 kts | 283° |
| 2026-05-04 18:57 | 51.70977 | 9.05658 | 3979 ft | 166 kts | 284° |
| 2026-05-04 18:58 | 51.71292 | 9.03862 | 3981 ft | 165 kts | 283° |
| 2026-05-04 18:58 | 51.71599 | 9.02104 | 3982 ft | 162 kts | 284° |
| 2026-05-04 18:58 | 51.71909 | 9.00354 | 3987 ft | 162 kts | 284° |
| 2026-05-04 18:58 | 51.72215 | 8.98601 | 3980 ft | 161 kts | 283° |
| 2026-05-04 18:59 | 51.72521 | 8.96877 | 3985 ft | 159 kts | 283° |
| 2026-05-04 18:59 | 51.72828 | 8.95147 | 3980 ft | 160 kts | 284° |
| 2026-05-04 18:59 | 51.73124 | 8.93428 | 3980 ft | 158 kts | 284° |
| 2026-05-04 18:59 | 51.73213 | 8.91703 | 3974 ft | 154 kts | 254° |
| 2026-05-04 19:00 | 51.72860 | 8.90088 | 3977 ft | 153 kts | 240° |
| 2026-05-04 19:00 | 51.72321 | 8.88609 | 3978 ft | 152 kts | 238° |
| 2026-05-04 19:00 | 51.71762 | 8.87151 | 3980 ft | 153 kts | 237° |
| 2026-05-04 19:00 | 51.71186 | 8.85703 | 3977 ft | 152 kts | 237° |
| 2026-05-04 19:01 | 51.70606 | 8.84286 | 3980 ft | 150 kts | 238° |
| 2026-05-04 19:01 | 51.70233 | 8.83371 | 3935 ft | 145 kts | 238° |
| 2026-05-04 19:01 | 51.69512 | 8.81592 | 3721 ft | 138 kts | 238° |
| 2026-05-04 19:01 | 51.68993 | 8.80310 | 3486 ft | 139 kts | 238° |
| 2026-05-04 19:02 | 51.68466 | 8.79009 | 3155 ft | 133 kts | 238° |
| 2026-05-04 19:02 | 51.67973 | 8.77804 | 2847 ft | 128 kts | 237° |
| 2026-05-04 19:02 | 51.67650 | 8.77004 | 2648 ft | 124 kts | 239° |
| 2026-05-04 19:02 | 51.67197 | 8.75883 | 2589 ft | 108 kts | 238° |
| 2026-05-04 19:03 | 51.66813 | 8.74933 | 2479 ft | 99 kts | 239° |
| 2026-05-04 19:03 | 51.66435 | 8.74009 | 2346 ft | 99 kts | 239° |
| 2026-05-04 19:03 | 51.66056 | 8.73068 | 2204 ft | 100 kts | 240° |
| 2026-05-04 19:03 | 51.65672 | 8.72128 | 2108 ft | 99 kts | 236° |
| 2026-05-04 19:04 | 51.65294 | 8.71193 | 1982 ft | 100 kts | 237° |
| 2026-05-04 19:04 | 51.64916 | 8.70259 | 1853 ft | 99 kts | 237° |
| 2026-05-04 19:04 | 51.64543 | 8.69344 | 1725 ft | 99 kts | 237° |
| 2026-05-04 19:04 | 51.64164 | 8.68417 | 1563 ft | 99 kts | 237° |
| 2026-05-04 19:05 | 51.63785 | 8.67486 | 1412 ft | 99 kts | 238° |
| 2026-05-04 19:05 | 51.63415 | 8.66571 | 1260 ft | 95 kts | 237° |
| 2026-05-04 19:05 | 51.63064 | 8.65709 | 1126 ft | 90 kts | 237° |
| 2026-05-04 19:05 | 51.62731 | 8.64873 | 1018 ft | 87 kts | 237° |
| 2026-05-04 19:06 | 51.62400 | 8.64057 | 901 ft | 87 kts | 237° |
| 2026-05-04 19:06 | 51.62068 | 8.63247 | 780 ft | 86 kts | 237° |
| 2026-05-04 19:06 | 51.61759 | 8.62496 | 695 ft | 66 kts | 236° |
| 2026-05-04 19:06 | 51.61493 | 8.61858 | 800 ft | 83 kts | 236° |
| 2026-05-04 19:07 | 51.61150 | 8.60975 | 1069 ft | 102 kts | 238° |
| 2026-05-04 19:07 | 51.60739 | 8.59935 | 1359 ft | 117 kts | 238° |
| 2026-05-04 19:07 | 51.60278 | 8.58778 | 1650 ft | 127 kts | 237° |
| 2026-05-04 19:07 | 51.59790 | 8.57550 | 1925 ft | 133 kts | 237° |
| 2026-05-04 19:08 | 51.59281 | 8.56269 | 2196 ft | 138 kts | 238° |
| 2026-05-04 19:08 | 51.58755 | 8.54948 | 2466 ft | 141 kts | 237° |
| 2026-05-04 19:08 | 51.58218 | 8.53607 | 2727 ft | 143 kts | 237° |
| 2026-05-04 19:08 | 51.57673 | 8.52256 | 2985 ft | 145 kts | 237° |
| 2026-05-04 19:09 | 51.57148 | 8.50888 | 3238 ft | 145 kts | 248° |
| 2026-05-04 19:09 | 51.57151 | 8.49278 | 3493 ft | 148 kts | 291° |
| 2026-05-04 19:09 | 51.57855 | 8.48100 | 3742 ft | 151 kts | 333° |
| 2026-05-04 19:09 | 51.58893 | 8.48022 | 3993 ft | 156 kts | 18° |
| 2026-05-04 19:10 | 51.59678 | 8.49157 | 4240 ft | 159 kts | 65° |
| 2026-05-04 19:10 | 51.60007 | 8.50850 | 4503 ft | 159 kts | 76° |
| 2026-05-04 19:10 | 51.60317 | 8.52593 | 4769 ft | 161 kts | 75° |
| 2026-05-04 19:10 | 51.60623 | 8.54302 | 4985 ft | 164 kts | 76° |
| 2026-05-04 19:11 | 51.60955 | 8.56173 | 4998 ft | 177 kts | 76° |
| 2026-05-04 19:11 | 51.61305 | 8.58123 | 5004 ft | 184 kts | 75° |
| 2026-05-04 19:11 | 51.61657 | 8.60097 | 5003 ft | 188 kts | 75° |
| 2026-05-04 19:11 | 51.62021 | 8.62134 | 5003 ft | 190 kts | 75° |
| 2026-05-04 19:12 | 51.62291 | 8.64207 | 5000 ft | 188 kts | 91° |
| 2026-05-04 19:12 | 51.61952 | 8.68398 | 5002 ft | 189 kts | 100° |
| 2026-05-04 19:12 | 51.61771 | 8.70511 | 5002 ft | 191 kts | 101° |
| 2026-05-04 19:13 | 51.61579 | 8.72628 | 5001 ft | 192 kts | 100° |
| 2026-05-04 19:13 | 51.61392 | 8.74748 | 5001 ft | 191 kts | 100° |
| 2026-05-04 19:13 | 51.61199 | 8.76862 | 5002 ft | 191 kts | 100° |
| 2026-05-04 19:13 | 51.61013 | 8.78984 | 5000 ft | 191 kts | 100° |
| 2026-05-04 19:14 | 51.60824 | 8.81096 | 4998 ft | 190 kts | 100° |
| 2026-05-04 19:14 | 51.60698 | 8.83191 | 4995 ft | 194 kts | 88° |
| 2026-05-04 19:14 | 51.61087 | 8.85296 | 4991 ft | 196 kts | 62° |
| 2026-05-04 19:14 | 51.61808 | 8.87102 | 4990 ft | 192 kts | 56° |
| 2026-05-04 19:15 | 51.62528 | 8.88880 | 4985 ft | 188 kts | 57° |
| 2026-05-04 19:15 | 51.63237 | 8.90642 | 4984 ft | 188 kts | 57° |
| 2026-05-04 19:15 | 51.64084 | 8.92222 | 4976 ft | 186 kts | 35° |
| 2026-05-04 19:15 | 51.65231 | 8.93115 | 4976 ft | 182 kts | 12° |
| 2026-05-04 19:16 | 51.66471 | 8.93229 | 4978 ft | 177 kts | 349° |
| 2026-05-04 19:16 | 51.67618 | 8.92602 | 4978 ft | 173 kts | 327° |
| 2026-05-04 19:16 | 51.68627 | 8.91543 | 4979 ft | 173 kts | 323° |
| 2026-05-04 19:16 | 51.69642 | 8.90492 | 4981 ft | 174 kts | 323° |
| 2026-05-04 19:17 | 51.70531 | 8.89222 | 4895 ft | 166 kts | 302° |
| 2026-05-04 19:17 | 51.70967 | 8.87627 | 4634 ft | 152 kts | 280° |
| 2026-05-04 19:17 | 51.71001 | 8.85951 | 4372 ft | 148 kts | 260° |
| 2026-05-04 19:17 | 51.70659 | 8.84404 | 4113 ft | 146 kts | 240° |
| 2026-05-04 19:18 | 51.70096 | 8.83032 | 3850 ft | 147 kts | 237° |
| 2026-05-04 19:18 | 51.69560 | 8.81698 | 3584 ft | 149 kts | 238° |
| 2026-05-04 19:18 | 51.68995 | 8.80312 | 3312 ft | 141 kts | 238° |
| 2026-05-04 19:18 | 51.68491 | 8.79072 | 3048 ft | 125 kts | 239° |
| 2026-05-04 19:19 | 51.68034 | 8.77952 | 2888 ft | 110 kts | 238° |
| 2026-05-04 19:19 | 51.67645 | 8.76984 | 2741 ft | 97 kts | 239° |
| 2026-05-04 19:19 | 51.67280 | 8.76093 | 2615 ft | 95 kts | 239° |
| 2026-05-04 19:19 | 51.66921 | 8.75206 | 2500 ft | 95 kts | 239° |
| 2026-05-04 19:20 | 51.66563 | 8.74321 | 2375 ft | 94 kts | 239° |
| 2026-05-04 19:20 | 51.66203 | 8.73425 | 2250 ft | 97 kts | 238° |
| 2026-05-04 19:20 | 51.65837 | 8.72525 | 2130 ft | 98 kts | 238° |
| 2026-05-04 19:20 | 51.65464 | 8.71609 | 1998 ft | 97 kts | 237° |
| 2026-05-04 19:21 | 51.65093 | 8.70697 | 1865 ft | 97 kts | 237° |
| 2026-05-04 19:21 | 51.64724 | 8.69787 | 1732 ft | 97 kts | 237° |
| 2026-05-04 19:21 | 51.64357 | 8.68885 | 1595 ft | 96 kts | 237° |
| 2026-05-04 19:21 | 51.63994 | 8.67990 | 1461 ft | 95 kts | 237° |
| 2026-05-04 19:22 | 51.63634 | 8.67111 | 1333 ft | 93 kts | 236° |
| 2026-05-04 19:22 | 51.63274 | 8.66259 | 1194 ft | 90 kts | 237° |
| 2026-05-04 19:22 | 51.62945 | 8.65429 | 1089 ft | 86 kts | 237° |
| 2026-05-04 19:22 | 51.62614 | 8.64620 | 981 ft | 87 kts | 236° |
| 2026-05-04 19:23 | 51.62283 | 8.63789 | 851 ft | 89 kts | 238° |
| 2026-05-04 19:23 | 51.61977 | 8.63029 | 712 ft | 68 kts | 236° |
| 2026-05-04 19:23 | 51.61735 | 8.62435 | 739 ft | 80 kts | 236° |
| 2026-05-04 19:23 | 51.61346 | 8.61525 | 1058 ft | 108 kts | 236° |
| 2026-05-04 19:24 | 51.60929 | 8.60497 | 1459 ft | 110 kts | 237° |
| 2026-05-04 19:24 | 51.60509 | 8.59458 | 1857 ft | 112 kts | 237° |
| 2026-05-04 19:24 | 51.60080 | 8.58396 | 2241 ft | 114 kts | 237° |
| 2026-05-04 19:24 | 51.59641 | 8.57316 | 2623 ft | 117 kts | 238° |
| 2026-05-04 19:25 | 51.59191 | 8.56202 | 3005 ft | 119 kts | 237° |
| 2026-05-04 19:25 | 51.58734 | 8.55077 | 3400 ft | 121 kts | 237° |
| 2026-05-04 19:25 | 51.58273 | 8.53949 | 3773 ft | 121 kts | 237° |
| 2026-05-04 19:25 | 51.57812 | 8.52823 | 4154 ft | 121 kts | 237° |
| 2026-05-04 19:26 | 51.57350 | 8.51694 | 4540 ft | 121 kts | 236° |
| 2026-05-04 19:26 | 51.56887 | 8.50564 | 4921 ft | 121 kts | 236° |
| 2026-05-04 19:26 | 51.56722 | 8.50206 | 4982 ft | 127 kts | 229° |
| 2026-05-04 19:26 | 51.56502 | 8.49905 | 4992 ft | 135 kts | 213° |
| 2026-05-04 19:27 | 51.55754 | 8.49683 | 5006 ft | 154 kts | 174° |
| 2026-05-04 19:27 | 51.55063 | 8.50081 | 5005 ft | 165 kts | 158° |
| 2026-05-04 19:27 | 51.54310 | 8.50689 | 5004 ft | 172 kts | 157° |
| 2026-05-04 19:27 | 51.53505 | 8.51324 | 5002 ft | 175 kts | 158° |
| 2026-05-04 19:28 | 51.52396 | 8.52168 | 5001 ft | 178 kts | 158° |
| 2026-05-04 19:28 | 51.51369 | 8.53299 | 5001 ft | 183 kts | 135° |
| 2026-05-04 19:28 | 51.50733 | 8.55087 | 5001 ft | 189 kts | 110° |
| 2026-05-04 19:28 | 51.50607 | 8.57205 | 5001 ft | 192 kts | 91° |
| 2026-05-04 19:29 | 51.50622 | 8.59350 | 5001 ft | 193 kts | 92° |
| 2026-05-04 19:29 | 51.50626 | 8.61509 | 5001 ft | 193 kts | 92° |